Time;durP1;ratioP1;P1;durP2;ratioP2;P2;SDS_P1;SDS_P2;PMS_P1;PMS_P2;Temp;Humidity;BMP_temperature;BMP_pressure;BME280_temperature;BME280_humidity;BME280_pressure;Samples;Min_cycle;Max_cycle;Signal;HPM_P1;HPM_P2
2022/12/31 00:01:23;;;;;;;;;;;;;;;8.52;61.88;99858.53;5073971;28;19923;-55
2022/12/31 00:03:49;;;;;;;;;;;;;;;8.53;62.02;99847.16;5072914;28;19970;-54
2022/12/31 00:06:22;;;;;;;;;;;;;;;8.51;62.10;99853.34;5074032;28;19963;-56
2022/12/31 00:08:48;;;;;;;;;;;;;;;8.47;62.10;99849.94;5074415;28;19951;-55
2022/12/31 00:11:14;;;;;;;;;;;;;;;8.38;62.34;99839.66;5073982;28;19967;-52
2022/12/31 00:13:40;;;;;;;;;;;;;;;8.37;62.51;99851.00;5073917;28;19924;-55
2022/12/31 00:16:16;;;;;;;;;;;;;;;8.44;62.21;99852.59;5073086;28;19917;-55
2022/12/31 00:18:42;;;;;;;;;;;;;;;8.49;62.15;99853.38;5071373;28;19917;-57
2022/12/31 00:21:08;;;;;;;;;;;;;;;8.48;62.10;99843.78;5083458;28;19974;-57
2022/12/31 00:23:34;;;;;;;;;;;;;;;8.48;62.07;99835.94;5093909;28;19920;-55
2022/12/31 00:26:03;;;;;;;;;;;;;;;8.52;62.04;99837.59;5093979;28;20253;-55
2022/12/31 00:28:28;;;;;;;;;;;;;;;8.62;61.99;99852.22;5092580;28;19924;-55
2022/12/31 00:30:53;;;;;;;;;;;;;;;8.66;61.75;99842.53;5092993;28;20428;-56
2022/12/31 00:33:19;;;;;;;;;;;;;;;8.74;61.38;99839.75;5085036;28;19921;-52
2022/12/31 00:35:44;;;;;;;;;;;;;;;8.71;61.50;99830.19;5072447;28;19955;-55
2022/12/31 00:38:09;;;;;;;;;;;;;;;8.77;61.20;99827.41;5073618;28;19924;-53
2022/12/31 00:40:35;;;;;;;;;;;;;;;8.79;61.19;99822.16;5073657;28;20433;-55
2022/12/31 00:43:00;;;;;;;;;;;;;;;8.85;61.12;99822.88;5073554;28;19916;-56
2022/12/31 00:45:25;;;;;;;;;;;;;;;8.94;60.87;99832.28;5073685;28;19979;-55
2022/12/31 00:47:50;;;;;;;;;;;;;;;8.91;61.08;99836.75;5073773;28;20404;-53
2022/12/31 00:50:16;;;;;;;;;;;;;;;8.94;60.99;99834.91;5073273;28;19920;-56
2022/12/31 00:52:41;;;;;;;;;;;;;;;8.95;61.01;99833.16;5073180;28;19965;-55
2022/12/31 00:55:07;;;;;;;;;;;;;;;8.87;60.82;99841.19;5073186;28;19925;-55
2022/12/31 00:57:32;;;;;;;;;;;;;;;8.91;60.88;99844.59;5073861;28;19931;-55
2022/12/31 00:59:57;;;;;;;;;;;;;;;8.98;60.69;99833.94;5073287;28;19921;-53
2022/12/31 01:02:22;;;;;;;;;;;;;;;9.03;60.72;99833.81;5073600;28;19930;-55
2022/12/31 01:04:48;;;;;;;;;;;;;;;9.03;60.46;99826.81;5073540;28;19974;-55
2022/12/31 01:07:13;;;;;;;;;;;;;;;8.97;60.84;99832.19;5073291;28;19924;-54
2022/12/31 01:09:38;;;;;;;;;;;;;;;9.05;60.54;99825.00;5072825;28;20347;-56
2022/12/31 01:12:04;;;;;;;;;;;;;;;9.13;60.43;99819.59;5073588;28;19921;-55
2022/12/31 01:14:31;;;;;;;;;;;;;;;9.24;60.18;99814.09;5072007;28;19974;-55
2022/12/31 01:16:56;;;;;;;;;;;;;;;9.23;59.90;99796.66;5073400;28;19989;-55
2022/12/31 01:19:26;;;;;;;;;;;;;;;9.26;59.90;99802.66;5072782;28;19963;-58
2022/12/31 01:21:52;;;;;;;;;;;;;;;9.32;59.85;99793.78;5073213;28;19916;-54
2022/12/31 01:24:17;;;;;;;;;;;;;;;9.39;59.58;99803.22;5073117;28;20282;-53
2022/12/31 01:26:43;;;;;;;;;;;;;;;9.37;59.33;99802.38;5073164;28;20336;-56
2022/12/31 01:29:09;;;;;;;;;;;;;;;9.37;59.31;99799.75;5071721;28;19924;-56
2022/12/31 01:31:35;;;;;;;;;;;;;;;9.40;59.31;99788.34;5073353;28;19920;-56
2022/12/31 01:34:00;;;;;;;;;;;;;;;9.49;59.32;99780.22;5076915;28;19924;-55
2022/12/31 01:36:27;;;;;;;;;;;;;;;9.54;59.24;99789.69;5075698;28;19916;-55
2022/12/31 01:38:54;;;;;;;;;;;;;;;9.56;59.01;99802.75;5075684;28;20004;-56
2022/12/31 01:41:20;;;;;;;;;;;;;;;9.53;58.99;99801.06;5076859;28;19923;-55
2022/12/31 01:43:53;;;;;;;;;;;;;;;9.61;58.96;99799.13;5077000;28;20368;-56
2022/12/31 01:46:32;;;;;;;;;;;;;;;9.65;58.92;99785.91;5077140;28;19920;-55
2022/12/31 01:49:00;;;;;;;;;;;;;;;9.55;58.95;99777.44;5076674;28;20360;-57
2022/12/31 01:51:28;;;;;;;;;;;;;;;9.53;59.02;99776.59;5075446;28;19969;-56
2022/12/31 01:53:53;;;;;;;;;;;;;;;9.55;59.12;99775.69;5076497;28;19959;-56
2022/12/31 01:56:20;;;;;;;;;;;;;;;9.56;59.13;99779.16;5076385;28;19971;-56
2022/12/31 01:58:47;;;;;;;;;;;;;;;9.56;59.20;99779.16;5076667;28;19917;-56
2022/12/31 02:01:17;;;;;;;;;;;;;;;9.46;59.25;99791.66;5076578;28;20386;-56
2022/12/31 02:03:43;;;;;;;;;;;;;;;9.52;59.24;99780.16;5076429;28;19917;-57
2022/12/31 02:06:21;;;;;;;;;;;;;;;9.60;59.26;99780.78;5076238;28;19920;-54
2022/12/31 02:08:47;;;;;;;;;;;;;;;9.63;59.12;99781.56;5081259;28;19998;-54
2022/12/31 02:11:20;;;;;;;;;;;;;;;9.75;58.98;99774.28;5095556;28;19982;-55
2022/12/31 02:13:46;;;;;;;;;;;;;;;9.80;58.73;99770.59;5096724;28;19923;-56
2022/12/31 02:16:20;;;;;;;;;;;;;;;9.89;58.72;99774.72;5096769;28;19917;-54
2022/12/31 02:18:55;;;;;;;;;;;;;;;9.75;58.77;99772.50;5096370;28;20323;-54
2022/12/31 02:21:20;;;;;;;;;;;;;;;9.77;58.76;99767.22;5096785;28;20360;-55
2022/12/31 02:23:51;;;;;;;;;;;;;;;9.87;58.62;99758.19;5096485;28;19916;-53
2022/12/31 02:26:52;;;;;;;;;;;;;;;9.94;58.30;99748.38;5096267;28;19921;-56
2022/12/31 02:29:20;;;;;;;;;;;;;;;9.82;58.42;99760.09;5073683;28;20338;-51
2022/12/31 02:31:49;;;;;;;;;;;;;;;9.90;58.45;99744.97;5091799;28;20359;-54
2022/12/31 02:34:20;;;;;;;;;;;;;;;9.93;58.46;99752.75;5095720;28;19924;-54
2022/12/31 02:36:46;;;;;;;;;;;;;;;10.02;58.45;99752.50;5096151;28;20023;-54
2022/12/31 02:39:12;;;;;;;;;;;;;;;10.02;58.45;99763.00;5094699;28;19939;-55
2022/12/31 02:41:50;;;;;;;;;;;;;;;10.03;58.22;99766.47;5096130;28;20287;-55
2022/12/31 02:44:22;;;;;;;;;;;;;;;9.99;58.13;99773.56;5096038;28;19939;-55
2022/12/31 02:46:54;;;;;;;;;;;;;;;10.18;58.13;99773.06;5095819;28;19916;-56
2022/12/31 02:49:22;;;;;;;;;;;;;;;10.11;58.22;99769.75;5095746;28;19916;-55
2022/12/31 02:52:06;;;;;;;;;;;;;;;10.08;58.31;99747.06;5095882;28;19916;-56
2022/12/31 02:54:40;;;;;;;;;;;;;;;9.91;58.33;99746.69;5095630;28;20028;-56
2022/12/31 02:57:11;;;;;;;;;;;;;;;10.11;58.38;99748.75;5095816;28;20015;-55
2022/12/31 03:02:26;;;;;;;;;;;;;;;10.15;58.36;99754.75;5095826;28;19965;-53
2022/12/31 03:04:53;;;;;;;;;;;;;;;10.19;58.37;99757.25;5095493;28;19920;-57
2022/12/31 03:07:20;;;;;;;;;;;;;;;10.22;58.34;99761.56;5095650;28;20015;-52
2022/12/31 03:09:45;;;;;;;;;;;;;;;10.19;58.59;99759.00;5095484;28;19920;-55
2022/12/31 03:14:56;;;;;;;;;;;;;;;10.28;58.99;99766.63;5095700;28;20027;-54
2022/12/31 03:17:21;;;;;;;;;;;;;;;10.26;59.34;99766.69;5095249;28;19945;-56
2022/12/31 03:22:31;;;;;;;;;;;;;;;10.38;59.29;99768.09;5095364;28;20011;-56
2022/12/31 03:27:45;;;;;;;;;;;;;;;10.43;59.27;99762.69;5095063;28;20032;-55
2022/12/31 03:30:11;;;;;;;;;;;;;;;10.39;59.68;99767.19;5095417;28;19921;-56
2022/12/31 03:32:36;;;;;;;;;;;;;;;10.38;59.81;99754.97;5095272;28;19916;-56
2022/12/31 03:35:02;;;;;;;;;;;;;;;10.40;59.90;99762.78;5095244;28;20052;-55
2022/12/31 03:37:27;;;;;;;;;;;;;;;10.39;60.11;99751.41;5094850;28;20001;-56
2022/12/31 03:39:52;;;;;;;;;;;;;;;10.41;60.01;99756.59;5095023;28;19920;-55
2022/12/31 03:42:18;;;;;;;;;;;;;;;10.51;59.80;99756.28;5094611;28;20379;-55
2022/12/31 03:44:43;;;;;;;;;;;;;;;10.53;59.97;99762.38;5094648;28;20396;-55
2022/12/31 03:47:08;;;;;;;;;;;;;;;10.58;60.05;99759.59;5094990;28;19923;-53
2022/12/31 03:49:33;;;;;;;;;;;;;;;10.49;60.89;99778.25;5094526;28;19927;-55
2022/12/31 03:52:01;;;;;;;;;;;;;;;10.60;60.71;99777.00;5094761;28;19960;-54
2022/12/31 03:54:27;;;;;;;;;;;;;;;10.51;61.41;99793.06;5094254;28;19963;-56
2022/12/31 03:56:52;;;;;;;;;;;;;;;10.58;61.30;99786.72;5093560;28;20418;-57
2022/12/31 03:59:18;;;;;;;;;;;;;;;10.63;61.31;99796.22;5094591;28;19924;-55
2022/12/31 04:01:43;;;;;;;;;;;;;;;10.60;61.57;99810.31;5093673;28;20338;-56
2022/12/31 04:04:08;;;;;;;;;;;;;;;10.62;61.70;99794.50;5094361;28;20398;-56
2022/12/31 04:06:33;;;;;;;;;;;;;;;10.67;61.59;99798.69;5093006;28;19975;-56
2022/12/31 04:08:59;;;;;;;;;;;;;;;10.68;61.84;99789.06;5094184;28;19973;-56
2022/12/31 04:11:24;;;;;;;;;;;;;;;10.69;61.85;99796.00;5092809;28;20393;-57
2022/12/31 04:13:49;;;;;;;;;;;;;;;10.68;62.20;99794.31;5092865;28;19920;-57
2022/12/31 04:16:15;;;;;;;;;;;;;;;10.74;61.95;99791.50;5094254;28;19916;-55
2022/12/31 04:18:40;;;;;;;;;;;;;;;10.74;62.11;99778.34;5093673;28;19924;-57
2022/12/31 04:21:05;;;;;;;;;;;;;;;10.67;62.51;99784.72;5095728;28;20460;-56
2022/12/31 04:23:30;;;;;;;;;;;;;;;10.69;62.47;99783.75;5093510;28;19927;-56
2022/12/31 04:25:56;;;;;;;;;;;;;;;10.47;63.43;99795.84;5093111;28;19952;-58
2022/12/31 04:28:21;;;;;;;;;;;;;;;10.56;63.30;99785.88;5094421;28;19916;-62
2022/12/31 04:30:47;;;;;;;;;;;;;;;10.63;63.10;99783.94;5094115;28;20440;-55
2022/12/31 04:33:12;;;;;;;;;;;;;;;10.68;63.09;99789.91;5085322;28;19963;-57
2022/12/31 04:35:37;;;;;;;;;;;;;;;10.72;62.92;99793.31;5091740;28;19924;-57
2022/12/31 04:38:03;;;;;;;;;;;;;;;10.78;62.98;99782.59;5107054;28;19924;-55
2022/12/31 04:40:28;;;;;;;;;;;;;;;10.79;62.89;99805.34;5098344;28;19924;-56
2022/12/31 04:42:53;;;;;;;;;;;;;;;10.71;63.37;99791.59;5093792;28;19927;-55
2022/12/31 04:45:19;;;;;;;;;;;;;;;10.79;63.23;99805.34;5093883;28;19920;-56
2022/12/31 04:47:44;;;;;;;;;;;;;;;10.85;63.13;99787.63;5094088;28;19924;-56
2022/12/31 04:50:10;;;;;;;;;;;;;;;10.89;63.07;99814.66;5093757;28;20007;-56
2022/12/31 04:52:35;;;;;;;;;;;;;;;10.90;63.11;99810.28;5093825;28;19920;-55
2022/12/31 04:55:01;;;;;;;;;;;;;;;10.91;63.16;99810.22;5092590;28;19924;-53
2022/12/31 04:57:27;;;;;;;;;;;;;;;10.91;63.48;99809.34;5093400;28;19924;-56
2022/12/31 04:59:52;;;;;;;;;;;;;;;10.97;63.27;99807.41;5093988;28;20398;-56
2022/12/31 05:02:17;;;;;;;;;;;;;;;10.96;63.28;99805.66;5094005;28;19926;-56
2022/12/31 05:04:43;;;;;;;;;;;;;;;10.97;63.34;99796.88;5093789;28;19927;-55
2022/12/31 05:07:08;;;;;;;;;;;;;;;10.99;63.24;99804.72;5090359;28;20353;-58
2022/12/31 05:09:33;;;;;;;;;;;;;;;11.00;63.46;99795.91;5089454;28;20291;-56
2022/12/31 05:11:59;;;;;;;;;;;;;;;11.05;63.50;99794.88;5080757;28;19990;-56
2022/12/31 05:14:24;;;;;;;;;;;;;;;10.99;63.75;99802.94;5077964;28;19924;-57
2022/12/31 05:16:50;;;;;;;;;;;;;;;11.07;63.49;99803.53;5077533;28;19921;-56
2022/12/31 05:19:16;;;;;;;;;;;;;;;11.07;63.64;99808.81;5077417;28;20372;-57
2022/12/31 05:21:41;;;;;;;;;;;;;;;11.09;63.70;99814.00;5079016;28;19921;-56
2022/12/31 05:24:07;;;;;;;;;;;;;;;10.98;64.17;99819.63;5094923;28;20454;-55
2022/12/31 05:26:32;;;;;;;;;;;;;;;11.04;63.92;99826.44;5092622;28;20066;-56
2022/12/31 05:28:59;;;;;;;;;;;;;;;11.00;64.10;99828.31;5077429;28;20425;-55
2022/12/31 05:31:24;;;;;;;;;;;;;;;11.00;64.18;99825.69;5083543;28;20014;-55
2022/12/31 05:33:49;;;;;;;;;;;;;;;10.91;64.71;99811.97;5082405;28;20005;-56
2022/12/31 05:36:15;;;;;;;;;;;;;;;11.05;64.13;99797.50;5077844;28;19920;-58
2022/12/31 05:38:40;;;;;;;;;;;;;;;11.09;63.98;99804.38;5097260;28;19920;-54
2022/12/31 05:41:06;;;;;;;;;;;;;;;11.09;64.05;99812.25;5088124;28;20719;-54
2022/12/31 05:43:32;;;;;;;;;;;;;;;11.22;63.65;99796.06;5077086;28;19917;-55
2022/12/31 05:46:01;;;;;;;;;;;;;;;11.26;63.49;99802.94;5076989;28;19923;-55
2022/12/31 05:48:26;;;;;;;;;;;;;;;11.28;63.42;99804.59;5076579;28;19920;-55
2022/12/31 05:50:51;;;;;;;;;;;;;;;11.27;63.56;99809.91;5092275;28;19931;-55
2022/12/31 05:53:17;;;;;;;;;;;;;;;11.23;63.71;99818.81;5076712;28;19927;-56
2022/12/31 05:55:44;;;;;;;;;;;;;;;11.28;63.57;99816.88;5088304;28;19931;-58
2022/12/31 05:58:09;;;;;;;;;;;;;;;11.30;63.49;99820.34;5095855;28;20265;-57
2022/12/31 06:00:34;;;;;;;;;;;;;;;11.33;63.38;99826.34;5096744;28;19931;-55
2022/12/31 06:03:00;;;;;;;;;;;;;;;11.34;63.49;99827.22;5095971;28;19924;-55
2022/12/31 06:05:25;;;;;;;;;;;;;;;11.38;63.24;99828.84;5096827;28;19920;-56
2022/12/31 06:07:50;;;;;;;;;;;;;;;11.33;63.67;99822.88;5092790;28;20303;-56
2022/12/31 06:10:15;;;;;;;;;;;;;;;11.39;63.39;99813.91;5095518;28;19927;-55
2022/12/31 06:12:41;;;;;;;;;;;;;;;11.44;63.07;99823.34;5075429;28;20007;-55
2022/12/31 06:15:07;;;;;;;;;;;;;;;11.41;63.33;99823.47;5077155;28;19947;-57
2022/12/31 06:17:32;;;;;;;;;;;;;;;11.40;63.40;99827.00;5075279;28;20400;-55
2022/12/31 06:19:58;;;;;;;;;;;;;;;11.47;63.25;99828.50;5076139;28;19916;-57
2022/12/31 06:22:23;;;;;;;;;;;;;;;11.48;63.25;99832.00;5085847;28;19927;-57
2022/12/31 06:24:49;;;;;;;;;;;;;;;11.54;63.16;99824.75;5096164;28;19924;-56
2022/12/31 06:27:14;;;;;;;;;;;;;;;11.54;63.00;99823.91;5082205;28;20357;-56
2022/12/31 06:29:39;;;;;;;;;;;;;;;11.55;63.01;99812.47;5096567;28;20010;-54
2022/12/31 06:32:05;;;;;;;;;;;;;;;11.51;62.88;99806.44;5096289;28;19931;-57
2022/12/31 06:34:30;;;;;;;;;;;;;;;11.64;62.87;99806.00;5083369;28;19960;-55
2022/12/31 06:36:55;;;;;;;;;;;;;;;11.47;63.25;99812.72;5086359;28;19935;-55
2022/12/31 06:39:20;;;;;;;;;;;;;;;11.58;63.10;99830.78;5087538;28;20437;-56
2022/12/31 06:41:46;;;;;;;;;;;;;;;11.62;63.13;99831.53;5074778;28;19978;-55
2022/12/31 06:44:11;;;;;;;;;;;;;;;11.64;63.09;99834.97;5075738;28;19980;-56
2022/12/31 06:46:36;;;;;;;;;;;;;;;11.68;63.08;99826.91;5075748;28;19977;-56
2022/12/31 06:49:02;;;;;;;;;;;;;;;11.75;62.85;99836.31;5075477;28;19974;-56
2022/12/31 06:51:27;;;;;;;;;;;;;;;11.78;62.77;99838.84;5074242;28;19931;-57
2022/12/31 06:53:52;;;;;;;;;;;;;;;11.82;62.57;99829.94;5073529;28;19921;-57
2022/12/31 06:56:19;;;;;;;;;;;;;;;11.77;62.96;99831.00;5075630;28;19924;-55
2022/12/31 06:58:45;;;;;;;;;;;;;;;11.74;63.04;99825.84;5075210;28;20003;-56
2022/12/31 07:01:10;;;;;;;;;;;;;;;11.82;62.72;99823.81;5075322;28;20011;-55
2022/12/31 07:03:40;;;;;;;;;;;;;;;11.84;62.71;99824.63;5075202;28;19988;-57
2022/12/31 07:06:12;;;;;;;;;;;;;;;11.86;62.87;99835.97;5081707;28;19931;-56
2022/12/31 07:09:03;;;;;;;;;;;;;;;11.78;63.01;99853.78;5095252;28;19927;-56
2022/12/31 07:11:37;;;;;;;;;;;;;;;11.76;63.09;99855.59;5095421;28;19920;-57
2022/12/31 07:14:06;;;;;;;;;;;;;;;11.63;63.58;99849.03;5085635;28;19921;-56
2022/12/31 07:16:34;;;;;;;;;;;;;;;11.70;63.53;99854.03;5082889;28;19951;-56
2022/12/31 07:19:00;;;;;;;;;;;;;;;11.72;63.60;99849.56;5093567;28;19927;-57
2022/12/31 07:21:33;;;;;;;;;;;;;;;11.78;63.50;99859.91;5086597;28;19928;-58
2022/12/31 07:23:59;;;;;;;;;;;;;;;11.79;63.61;99860.75;5077384;28;19950;-59
2022/12/31 07:26:33;;;;;;;;;;;;;;;11.90;63.23;99866.53;5084298;28;19999;-60
2022/12/31 07:29:11;;;;;;;;;;;;;;;11.93;63.36;99876.97;5077170;28;19920;-56
2022/12/31 07:31:49;;;;;;;;;;;;;;;11.98;63.10;99861.88;5081125;28;19938;-57
2022/12/31 07:34:33;;;;;;;;;;;;;;;11.97;63.17;99861.91;5082000;28;19920;-58
2022/12/31 07:37:15;;;;;;;;;;;;;;;11.91;63.31;99865.63;5088033;28;20303;-57
2022/12/31 07:39:50;;;;;;;;;;;;;;;11.90;63.31;99853.38;5088371;28;19921;-58
2022/12/31 07:42:22;;;;;;;;;;;;;;;11.90;63.28;99847.25;5093876;28;20364;-57
2022/12/31 07:44:57;;;;;;;;;;;;;;;11.85;63.56;99836.91;5090860;28;19924;-56
2022/12/31 07:47:24;;;;;;;;;;;;;;;11.92;63.41;99851.53;5075126;28;20003;-56
2022/12/31 07:49:50;;;;;;;;;;;;;;;11.97;63.41;99854.88;5081751;28;19916;-55
2022/12/31 07:52:15;;;;;;;;;;;;;;;11.99;63.20;99862.72;5087984;28;19927;-58
2022/12/31 07:54:40;;;;;;;;;;;;;;;12.13;63.07;99870.09;5083210;28;19924;-58
2022/12/31 07:57:06;;;;;;;;;;;;;;;12.19;63.02;99865.50;5088501;28;19956;-54
2022/12/31 07:59:32;;;;;;;;;;;;;;;12.17;63.14;99871.72;5087617;28;19924;-57
2022/12/31 08:02:00;;;;;;;;;;;;;;;12.30;62.73;99876.50;5080027;28;20045;-56
2022/12/31 08:04:44;;;;;;;;;;;;;;;12.39;62.42;99884.97;5088414;28;19930;-57
2022/12/31 08:07:26;;;;;;;;;;;;;;;12.40;62.54;99879.63;5080836;28;20077;-57
2022/12/31 08:10:09;;;;;;;;;;;;;;;12.42;62.60;99884.88;5075141;28;19920;-55
2022/12/31 08:12:36;;;;;;;;;;;;;;;12.50;62.48;99880.19;5073429;28;19920;-56
2022/12/31 08:15:02;;;;;;;;;;;;;;;12.56;62.28;99888.69;5074039;28;19923;-57
2022/12/31 08:17:28;;;;;;;;;;;;;;;12.50;62.71;99875.75;5074039;28;19917;-58
2022/12/31 08:19:53;;;;;;;;;;;;;;;12.56;62.50;99880.78;5073679;28;19921;-57
2022/12/31 08:22:18;;;;;;;;;;;;;;;12.60;62.67;99881.53;5071605;28;19932;-56
2022/12/31 08:24:56;;;;;;;;;;;;;;;12.65;62.51;99889.28;5072040;28;19917;-57
2022/12/31 08:27:40;;;;;;;;;;;;;;;12.70;62.56;99898.72;5072518;28;19920;-55
2022/12/31 08:30:11;;;;;;;;;;;;;;;12.67;62.68;99898.84;5074170;28;19917;-56
2022/12/31 08:32:39;;;;;;;;;;;;;;;12.70;62.75;99892.59;5074156;28;19916;-56
2022/12/31 08:35:14;;;;;;;;;;;;;;;12.64;63.04;99893.69;5073919;28;19978;-56
2022/12/31 08:37:47;;;;;;;;;;;;;;;12.68;62.99;99883.88;5073686;28;19916;-56
2022/12/31 08:40:20;;;;;;;;;;;;;;;12.78;62.72;99875.56;5073591;28;19916;-57
2022/12/31 08:42:55;;;;;;;;;;;;;;;12.69;63.09;99878.56;5073845;28;19921;-56
2022/12/31 08:45:27;;;;;;;;;;;;;;;12.73;62.86;99871.41;5073621;28;19950;-57
2022/12/31 08:48:11;;;;;;;;;;;;;;;12.65;63.32;99869.06;5073724;28;19917;-57
2022/12/31 08:50:36;;;;;;;;;;;;;;;12.80;62.90;99870.22;5073277;28;19920;-54
2022/12/31 08:53:02;;;;;;;;;;;;;;;12.86;63.02;99861.25;5073333;28;20273;-56
2022/12/31 08:55:27;;;;;;;;;;;;;;;12.92;62.81;99863.63;5073490;28;20031;-56
2022/12/31 08:58:05;;;;;;;;;;;;;;;12.99;62.63;99865.94;5073683;28;20377;-58
2022/12/31 09:00:31;;;;;;;;;;;;;;;13.04;62.71;99863.97;5073800;28;20399;-57
2022/12/31 09:03:15;;;;;;;;;;;;;;;13.13;62.57;99857.50;5073371;28;19974;-55
2022/12/31 09:05:59;;;;;;;;;;;;;;;13.22;62.35;99865.03;5087490;28;19922;-54
2022/12/31 09:08:28;;;;;;;;;;;;;;;13.19;62.49;99870.44;5112972;28;19981;-57
2022/12/31 09:11:12;;;;;;;;;;;;;;;13.20;62.66;99871.28;5114164;28;19923;-57
2022/12/31 09:13:37;;;;;;;;;;;;;;;13.22;62.77;99864.19;5112697;28;20061;-57
2022/12/31 09:16:02;;;;;;;;;;;;;;;13.16;62.87;99851.22;5113950;28;19959;-57
2022/12/31 09:18:28;;;;;;;;;;;;;;;13.24;62.58;99855.28;5114167;28;20291;-57
2022/12/31 09:20:54;;;;;;;;;;;;;;;13.28;62.54;99843.72;5114091;28;19972;-56
2022/12/31 09:23:19;;;;;;;;;;;;;;;13.36;62.45;99840.75;5114205;28;19924;-55
2022/12/31 09:25:48;;;;;;;;;;;;;;;13.41;62.38;99849.34;5113966;28;19920;-58
2022/12/31 09:28:36;;;;;;;;;;;;;;;13.43;62.45;99831.66;5114065;28;20260;-56
2022/12/31 09:31:05;;;;;;;;;;;;;;;13.44;62.52;99825.44;5106834;28;19916;-56
2022/12/31 09:33:34;;;;;;;;;;;;;;;13.41;62.69;99827.38;5113717;28;19922;-56
2022/12/31 09:36:02;;;;;;;;;;;;;;;13.49;62.58;99825.28;5113757;28;20411;-60
2022/12/31 09:38:36;;;;;;;;;;;;;;;13.58;62.41;99826.66;5113819;28;19968;-57
2022/12/31 09:41:11;;;;;;;;;;;;;;;13.60;62.37;99806.31;5113562;28;19923;-58
2022/12/31 09:43:40;;;;;;;;;;;;;;;13.66;62.12;99800.78;5113725;28;19916;-58
2022/12/31 09:46:11;;;;;;;;;;;;;;;13.66;62.32;99796.38;5113659;28;19919;-56
2022/12/31 09:48:42;;;;;;;;;;;;;;;13.72;62.19;99784.66;5113702;28;19938;-55
2022/12/31 09:51:20;;;;;;;;;;;;;;;13.77;62.17;99795.91;5113700;28;20371;-56
2022/12/31 09:53:51;;;;;;;;;;;;;;;13.88;61.84;99801.53;5115685;28;19920;-57
2022/12/31 09:56:37;;;;;;;;;;;;;;;13.90;61.81;99790.94;5117519;28;19924;-56
2022/12/31 09:59:02;;;;;;;;;;;;;;;13.90;61.79;99793.56;5117116;28;20381;-55
2022/12/31 10:01:44;;;;;;;;;;;;;;;13.93;61.66;99799.59;5117263;28;19920;-55
2022/12/31 10:04:34;;;;;;;;;;;;;;;13.94;61.69;99789.88;5117340;28;20036;-57
2022/12/31 10:07:08;;;;;;;;;;;;;;;13.89;61.85;99798.00;5117318;28;19923;-57
2022/12/31 10:09:36;;;;;;;;;;;;;;;13.86;61.98;99790.22;5117214;28;19977;-57
2022/12/31 10:12:07;;;;;;;;;;;;;;;13.85;62.03;99779.72;5117148;28;20276;-57
2022/12/31 10:14:40;;;;;;;;;;;;;;;13.84;62.15;99786.75;5096085;28;19927;-56
2022/12/31 10:17:24;;;;;;;;;;;;;;;13.69;62.84;99777.75;5081871;28;19928;-57
2022/12/31 10:20:01;;;;;;;;;;;;;;;13.75;62.82;99773.97;5093919;28;19920;-56
2022/12/31 10:22:45;;;;;;;;;;;;;;;13.63;63.43;99767.47;5079437;28;19921;-59
2022/12/31 10:25:10;;;;;;;;;;;;;;;13.69;63.30;99758.44;5087875;28;19916;-56
2022/12/31 10:27:50;;;;;;;;;;;;;;;13.70;63.48;99755.72;5085713;28;19928;-58
2022/12/31 10:30:19;;;;;;;;;;;;;;;13.70;63.74;99766.28;5078497;28;19925;-58
2022/12/31 10:32:48;;;;;;;;;;;;;;;13.69;63.75;99758.44;5076940;28;20021;-56
2022/12/31 10:35:13;;;;;;;;;;;;;;;13.71;63.93;99759.19;5087628;28;19928;-57
2022/12/31 10:37:42;;;;;;;;;;;;;;;13.70;64.04;99755.72;5089601;28;19973;-55
2022/12/31 10:40:36;;;;;;;;;;;;;;;13.68;64.38;99754.06;5084705;28;19928;-57
2022/12/31 10:43:20;;;;;;;;;;;;;;;13.65;64.44;99748.94;5074726;28;20015;-56
2022/12/31 10:46:04;;;;;;;;;;;;;;;13.66;64.45;99753.28;5082631;28;20363;-56
2022/12/31 10:48:35;;;;;;;;;;;;;;;13.60;64.71;99753.53;5084947;28;19974;-55
2022/12/31 10:51:19;;;;;;;;;;;;;;;13.59;64.79;99747.41;5089033;28;19920;-58
2022/12/31 10:53:55;;;;;;;;;;;;;;;13.53;64.96;99742.41;5090392;28;20405;-58
2022/12/31 10:56:39;;;;;;;;;;;;;;;13.51;65.25;99734.53;5079944;28;20006;-57
2022/12/31 10:59:13;;;;;;;;;;;;;;;13.51;65.25;99726.63;5076465;28;20032;-57
2022/12/31 11:02:02;;;;;;;;;;;;;;;13.58;64.89;99716.66;5087563;28;19920;-56
2022/12/31 11:04:58;;;;;;;;;;;;;;;13.64;64.91;99704.97;5074317;28;19921;-57
2022/12/31 11:07:39;;;;;;;;;;;;;;;13.58;65.49;99692.06;5092969;28;20014;-57
2022/12/31 11:10:17;;;;;;;;;;;;;;;13.66;65.16;99692.56;5088933;28;19981;-56
2022/12/31 11:13:11;;;;;;;;;;;;;;;13.69;64.97;99674.81;5084712;28;19925;-56
2022/12/31 11:15:37;;;;;;;;;;;;;;;13.62;65.30;99672.50;5059231;28;19932;-55
2022/12/31 11:18:05;;;;;;;;;;;;;;;13.62;65.46;99701.53;5075059;28;19921;-58
2022/12/31 11:20:33;;;;;;;;;;;;;;;13.64;65.40;99732.22;5086412;28;19920;-58
2022/12/31 11:23:17;;;;;;;;;;;;;;;13.66;65.08;99718.97;5090311;28;19920;-58
2022/12/31 11:25:42;;;;;;;;;;;;;;;13.67;65.29;99696.91;5079781;28;19920;-57
2022/12/31 11:28:20;;;;;;;;;;;;;;;13.66;65.27;99666.16;5078591;28;20261;-56
2022/12/31 11:31:04;;;;;;;;;;;;;;;13.67;65.22;99667.88;5089779;28;19920;-57
2022/12/31 11:33:29;;;;;;;;;;;;;;;13.65;65.37;99680.28;5093607;28;19923;-58
2022/12/31 11:36:02;;;;;;;;;;;;;;;13.67;65.47;99683.72;5074497;28;19916;-58
2022/12/31 11:38:35;;;;;;;;;;;;;;;13.57;65.98;99682.44;5074289;28;19923;-57
2022/12/31 11:41:11;;;;;;;;;;;;;;;13.61;65.89;99670.81;5073298;28;19923;-57
2022/12/31 11:43:40;;;;;;;;;;;;;;;13.58;66.10;99655.09;5088835;28;20414;-56
2022/12/31 11:46:24;;;;;;;;;;;;;;;13.68;65.86;99666.94;5090083;28;19917;-56
2022/12/31 11:49:05;;;;;;;;;;;;;;;13.73;65.75;99663.19;5074029;28;20379;-56
2022/12/31 11:51:31;;;;;;;;;;;;;;;13.84;65.64;99649.47;5074531;28;19916;-57
2022/12/31 11:54:05;;;;;;;;;;;;;;;13.87;65.71;99657.25;5074204;28;19928;-57
2022/12/31 11:56:34;;;;;;;;;;;;;;;13.92;65.75;99647.31;5081153;28;20283;-57
2022/12/31 11:59:08;;;;;;;;;;;;;;;13.91;66.13;99642.97;5084941;28;20189;-59
2022/12/31 12:01:39;;;;;;;;;;;;;;;13.97;65.78;99636.56;5090488;28;19928;-57
2022/12/31 12:04:04;;;;;;;;;;;;;;;14.03;65.66;99642.38;5090227;28;19927;-58
2022/12/31 12:06:31;;;;;;;;;;;;;;;14.01;65.95;99643.41;5090667;28;19920;-56
2022/12/31 12:09:03;;;;;;;;;;;;;;;13.96;66.55;99635.72;5089269;28;19929;-58
2022/12/31 12:11:31;;;;;;;;;;;;;;;14.05;66.20;99639.69;5091440;28;19916;-56
2022/12/31 12:13:56;;;;;;;;;;;;;;;14.04;66.51;99641.47;5086143;28;20411;-57
2022/12/31 12:16:22;;;;;;;;;;;;;;;14.09;66.49;99635.13;5084512;28;19999;-57
2022/12/31 12:19:01;;;;;;;;;;;;;;;14.08;66.54;99638.66;5079824;28;20379;-56
2022/12/31 12:21:27;;;;;;;;;;;;;;;13.89;67.97;99623.72;5084540;28;19930;-58
2022/12/31 12:24:15;;;;;;;;;;;;;;;14.03;67.16;99621.25;5076489;28;20040;-56
2022/12/31 12:26:42;;;;;;;;;;;;;;;14.05;67.29;99624.69;5087359;28;19920;-57
2022/12/31 12:29:11;;;;;;;;;;;;;;;14.06;67.45;99620.25;5089629;28;19924;-57
2022/12/31 12:31:36;;;;;;;;;;;;;;;14.08;67.60;99612.25;5092628;28;19931;-57
2022/12/31 12:34:02;;;;;;;;;;;;;;;13.97;67.98;99605.72;5080937;28;19920;-57
2022/12/31 12:36:27;;;;;;;;;;;;;;;14.04;67.84;99601.88;5101963;28;20453;-57
2022/12/31 12:39:00;;;;;;;;;;;;;;;14.12;67.69;99606.75;5076583;28;19925;-57
2022/12/31 12:41:26;;;;;;;;;;;;;;;14.14;67.82;99606.69;5086963;28;19965;-57
2022/12/31 12:44:02;;;;;;;;;;;;;;;14.17;67.63;99606.53;5088464;28;21075;-58
2022/12/31 12:46:45;;;;;;;;;;;;;;;14.13;68.08;99615.56;5090402;28;19920;-59
2022/12/31 12:49:36;;;;;;;;;;;;;;;14.19;67.78;99604.66;5075735;28;20019;-56
2022/12/31 12:52:20;;;;;;;;;;;;;;;14.19;68.00;99602.03;5075169;28;19920;-56
2022/12/31 12:55:18;;;;;;;;;;;;;;;14.23;67.87;99601.78;5080454;28;19920;-58
2022/12/31 12:57:57;;;;;;;;;;;;;;;14.19;68.23;99586.19;5059756;28;19924;-56
2022/12/31 13:00:23;;;;;;;;;;;;;;;14.24;67.95;99592.09;5075664;28;19920;-59
2022/12/31 13:03:09;;;;;;;;;;;;;;;14.16;69.00;99600.41;5076594;28;19985;-57
2022/12/31 13:05:37;;;;;;;;;;;;;;;14.12;69.32;99597.97;5067221;28;19920;-57
2022/12/31 13:08:13;;;;;;;;;;;;;;;14.09;69.81;99608.72;5082931;28;20010;-58
2022/12/31 13:10:48;;;;;;;;;;;;;;;14.12;69.85;99608.53;5092750;28;19928;-58
2022/12/31 13:13:32;;;;;;;;;;;;;;;14.21;69.65;99597.53;5078293;28;19962;-57